createdAt,value
2018-12-17T00:00:15.545Z,0.90
2018-12-17T00:02:43.081Z,1.00
2018-12-17T00:05:10.571Z,0.90
2018-12-17T00:07:38.195Z,0.90
2018-12-17T00:10:06.174Z,1.20
2018-12-17T00:12:33.917Z,1.37
2018-12-17T00:15:01.581Z,1.80
2018-12-17T00:17:29.238Z,0.90
2018-12-17T00:19:56.897Z,1.17
2018-12-17T00:22:24.357Z,1.67
2018-12-17T00:24:52.010Z,1.10
2018-12-17T00:27:19.461Z,1.47
2018-12-17T00:29:47.118Z,1.90
2018-12-17T00:32:14.576Z,1.70
2018-12-17T00:34:42.233Z,1.57
2018-12-17T00:37:09.686Z,1.50
2018-12-17T00:39:37.250Z,1.40
2018-12-17T00:42:04.689Z,1.50
2018-12-17T00:44:32.254Z,1.47
2018-12-17T00:46:59.705Z,2.93
2018-12-17T00:49:27.169Z,4.93
2018-12-17T00:51:54.621Z,4.37
2018-12-17T00:54:22.053Z,3.80
2018-12-17T00:56:49.524Z,2.87
2018-12-17T00:59:17.179Z,2.67
2018-12-17T01:01:44.629Z,2.50
2018-12-17T01:04:12.166Z,3.03
2018-12-17T01:06:39.745Z,3.27
2018-12-17T01:09:07.402Z,2.40
2018-12-17T01:11:35.061Z,2.10
2018-12-17T01:14:02.716Z,1.73
2018-12-17T01:16:30.399Z,2.33
2018-12-17T01:18:57.930Z,1.77
2018-12-17T01:21:25.949Z,2.10
2018-12-17T01:23:53.450Z,1.70
2018-12-17T01:26:21.665Z,1.67
2018-12-17T01:28:49.184Z,1.93
2018-12-17T01:31:16.742Z,1.90
2018-12-17T01:33:44.401Z,1.30
2018-12-17T01:36:12.060Z,1.77
2018-12-17T01:38:39.518Z,2.00
2018-12-17T01:41:06.962Z,1.67
2018-12-17T01:43:34.431Z,1.80
2018-12-17T01:46:02.003Z,2.17
2018-12-17T01:48:29.529Z,1.60
2018-12-17T01:50:56.987Z,1.33
2018-12-17T01:53:24.555Z,1.10
2018-12-17T01:55:52.009Z,1.40
2018-12-17T01:58:19.465Z,1.60
2018-12-17T02:00:46.974Z,1.37
2018-12-17T02:03:14.473Z,1.93
2018-12-17T02:05:42.109Z,1.67
2018-12-17T02:08:09.577Z,1.37
2018-12-17T02:10:37.028Z,1.27
2018-12-17T02:13:04.486Z,1.30
2018-12-17T02:15:31.938Z,1.77
2018-12-17T02:17:59.594Z,1.10
2018-12-17T02:20:27.050Z,0.80
2018-12-17T02:22:54.507Z,1.03
2018-12-17T02:25:22.166Z,1.23
2018-12-17T02:27:49.820Z,1.53
2018-12-17T02:30:17.302Z,2.13
2018-12-17T02:32:44.748Z,2.37
2018-12-17T02:35:12.480Z,2.07
2018-12-17T02:37:40.126Z,1.77
2018-12-17T02:40:07.705Z,1.97
2018-12-17T02:42:35.391Z,1.77
2018-12-17T02:45:02.924Z,2.17
2018-12-17T02:47:30.472Z,2.10
2018-12-17T02:49:58.134Z,2.00
2018-12-17T02:52:25.584Z,1.93
2018-12-17T02:54:53.260Z,1.63
2018-12-17T02:57:20.760Z,2.53
2018-12-17T02:59:48.269Z,2.23
2018-12-17T03:02:15.719Z,1.57
2018-12-17T03:04:43.175Z,2.13
2018-12-17T03:07:10.719Z,1.70
2018-12-17T03:09:38.243Z,1.57
2018-12-17T03:12:05.810Z,1.53
2018-12-17T03:14:33.299Z,2.10
2018-12-17T03:17:00.815Z,2.13
2018-12-17T03:19:28.393Z,1.50
2018-12-17T03:21:55.849Z,1.87
2018-12-17T03:24:23.302Z,1.50
2018-12-17T03:26:50.962Z,1.73
2018-12-17T03:29:18.690Z,1.77
2018-12-17T03:31:46.441Z,1.47
2018-12-17T03:34:13.942Z,1.27
2018-12-17T03:36:41.381Z,0.90
2018-12-17T03:39:08.848Z,1.27
2018-12-17T03:41:36.542Z,1.77
2018-12-17T03:44:04.153Z,1.00
2018-12-17T03:46:31.706Z,1.33
2018-12-17T03:48:59.313Z,1.23
2018-12-17T03:51:26.760Z,1.20
2018-12-17T03:53:54.264Z,1.30
2018-12-17T03:56:21.841Z,1.53
2018-12-17T03:58:49.297Z,1.33
2018-12-17T04:01:16.737Z,1.70
2018-12-17T04:03:44.413Z,2.13
2018-12-17T04:09:33.278Z,1.13
2018-12-17T04:12:00.842Z,1.43
2018-12-17T04:14:28.295Z,1.27
2018-12-17T04:16:55.766Z,1.80
2018-12-17T04:19:23.298Z,2.00
2018-12-17T04:21:50.759Z,2.03
2018-12-17T04:24:18.510Z,2.43
2018-12-17T04:26:46.178Z,3.27
2018-12-17T04:29:13.831Z,2.83
2018-12-17T04:31:41.494Z,2.67
2018-12-17T04:34:08.943Z,2.80
2018-12-17T04:36:36.396Z,2.17
2018-12-17T04:39:05.795Z,1.60
2018-12-17T04:41:33.408Z,1.87
2018-12-17T04:44:01.115Z,1.97
2018-12-17T04:46:28.784Z,2.43
2018-12-17T04:48:56.234Z,2.07
2018-12-17T04:51:23.917Z,2.43
2018-12-17T04:53:51.544Z,3.30
2018-12-17T04:56:19.117Z,2.73
2018-12-17T04:58:46.568Z,2.73
2018-12-17T05:01:14.110Z,2.07
2018-12-17T05:03:41.584Z,2.60
2018-12-17T05:06:09.143Z,2.23
2018-12-17T05:08:36.597Z,1.97
2018-12-17T05:11:04.135Z,2.83
2018-12-17T05:13:31.698Z,3.37
2018-12-17T05:15:59.149Z,4.13
2018-12-17T05:18:26.702Z,2.53
2018-12-17T05:20:54.367Z,2.93
2018-12-17T05:23:21.815Z,3.20
2018-12-17T05:25:49.473Z,2.93
2018-12-17T05:28:17.052Z,2.57
2018-12-17T05:30:44.726Z,2.60
2018-12-17T05:33:12.494Z,2.40
2018-12-17T05:35:40.089Z,1.87
2018-12-17T05:38:07.535Z,1.90
2018-12-17T05:40:35.062Z,1.60
2018-12-17T05:43:02.526Z,1.87
2018-12-17T05:45:30.118Z,2.07
2018-12-17T05:47:57.577Z,2.03
2018-12-17T05:50:25.034Z,1.87
2018-12-17T05:52:52.569Z,2.03
2018-12-17T05:55:20.053Z,2.47
2018-12-17T05:57:47.493Z,2.60
2018-12-17T06:00:15.054Z,2.37
2018-12-17T06:02:42.717Z,2.57
2018-12-17T06:05:10.369Z,2.20
2018-12-17T06:07:37.818Z,2.50
2018-12-17T06:10:05.690Z,2.70
2018-12-17T06:12:33.142Z,1.93
2018-12-17T06:15:00.577Z,2.10
2018-12-17T06:17:28.250Z,2.00
2018-12-17T06:19:55.818Z,2.57
2018-12-17T06:22:23.270Z,2.03
2018-12-17T06:24:50.821Z,2.00
2018-12-17T06:27:18.478Z,2.37
2018-12-17T06:29:45.930Z,2.80
2018-12-17T06:32:13.406Z,2.23
2018-12-17T06:34:40.841Z,2.30
2018-12-17T06:37:08.408Z,2.70
2018-12-17T06:39:36.070Z,2.10
2018-12-17T06:42:03.826Z,2.90
2018-12-17T06:44:31.480Z,2.87
2018-12-17T06:46:58.955Z,2.73
2018-12-17T06:49:26.587Z,3.20
2018-12-17T06:51:54.488Z,2.93
2018-12-17T06:54:22.581Z,2.70
2018-12-17T06:56:50.182Z,3.13
2018-12-17T06:59:17.628Z,3.20
2018-12-17T07:01:45.320Z,2.73
2018-12-17T07:04:12.853Z,3.37
2018-12-17T07:06:40.407Z,3.47
2018-12-17T07:09:08.085Z,2.97
2018-12-17T07:11:35.713Z,3.43
2018-12-17T07:14:03.374Z,3.10
2018-12-17T07:16:30.950Z,3.10
2018-12-17T07:18:58.410Z,3.03
2018-12-17T07:21:25.831Z,2.80
2018-12-17T07:23:53.398Z,2.53
2018-12-17T07:26:20.949Z,3.77
2018-12-17T07:28:48.449Z,3.53
2018-12-17T07:31:15.882Z,2.83
2018-12-17T07:33:43.420Z,3.30
2018-12-17T07:36:11.077Z,3.27
2018-12-17T07:38:38.645Z,2.90
2018-12-17T07:41:06.096Z,4.03
2018-12-17T07:43:33.554Z,3.17
2018-12-17T07:46:01.108Z,1.87
2018-12-17T07:48:28.759Z,3.07
2018-12-17T07:50:56.219Z,3.20
2018-12-17T07:53:23.866Z,2.47
2018-12-17T07:55:51.315Z,2.50
2018-12-17T07:58:18.792Z,2.00
2018-12-17T08:00:46.308Z,2.77
2018-12-17T08:03:13.797Z,2.47
2018-12-17T08:05:41.338Z,2.90
2018-12-17T08:08:08.998Z,3.37
2018-12-17T08:10:36.657Z,2.40
2018-12-17T08:13:04.201Z,2.63
2018-12-17T08:15:32.295Z,2.33
2018-12-17T08:18:11.802Z,2.13
2018-12-17T08:20:39.376Z,1.70
2018-12-17T08:23:07.039Z,2.80
2018-12-17T08:25:34.605Z,1.70
2018-12-17T08:28:02.054Z,1.97
2018-12-17T08:30:29.602Z,2.00
2018-12-17T08:32:57.061Z,1.80
2018-12-17T08:35:24.502Z,1.60
2018-12-17T08:37:52.076Z,1.57
2018-12-17T08:40:19.532Z,1.57
2018-12-17T08:42:47.080Z,2.10
2018-12-17T08:45:14.729Z,1.50
2018-12-17T08:47:42.184Z,1.37
2018-12-17T08:50:09.846Z,1.90
2018-12-17T08:52:37.410Z,1.37
2018-12-17T08:55:05.582Z,1.70
2018-12-17T08:57:37.908Z,2.40
2018-12-17T09:00:03.146Z,3.23
2018-12-17T09:02:30.614Z,3.73
2018-12-17T09:04:58.139Z,3.07
2018-12-17T09:07:25.674Z,2.80
2018-12-17T09:09:53.161Z,2.50
2018-12-17T09:12:20.821Z,2.77
2018-12-17T09:14:48.401Z,2.03
2018-12-17T09:17:15.936Z,1.70
2018-12-17T09:19:43.596Z,1.90
2018-12-17T09:22:11.051Z,2.27
2018-12-17T09:24:38.590Z,1.83
2018-12-17T09:27:06.155Z,2.00
2018-12-17T09:29:33.638Z,2.20
2018-12-17T09:32:01.188Z,2.10
2018-12-17T09:34:28.625Z,2.57
2018-12-17T09:36:56.066Z,2.00
2018-12-17T09:39:23.630Z,2.23
2018-12-17T09:41:51.098Z,2.63
2018-12-17T09:44:18.537Z,3.03
2018-12-17T09:46:46.109Z,2.30
2018-12-17T09:49:13.602Z,2.67
2018-12-17T09:51:41.315Z,3.10
2018-12-17T09:54:08.967Z,2.73
2018-12-17T09:56:36.626Z,3.77
2018-12-17T09:59:04.294Z,3.97
2018-12-17T10:01:31.951Z,3.47
2018-12-17T10:03:59.529Z,2.97
2018-12-17T10:06:27.077Z,2.53
2018-12-17T10:08:54.718Z,3.37
2018-12-17T10:11:22.173Z,3.87
2018-12-17T10:13:49.619Z,3.57
2018-12-17T10:16:17.286Z,3.10
2018-12-17T10:18:44.767Z,3.30
2018-12-17T10:21:12.402Z,3.30
2018-12-17T10:23:40.377Z,2.97
2018-12-17T10:26:09.433Z,3.73
2018-12-17T10:28:36.911Z,3.57
2018-12-17T10:31:04.472Z,3.67
2018-12-17T10:33:32.158Z,3.97
2018-12-17T10:35:59.788Z,2.83
2018-12-17T10:38:27.445Z,2.50
2018-12-17T10:40:55.094Z,2.77
2018-12-17T10:43:22.574Z,2.30
2018-12-17T10:45:50.218Z,2.53
2018-12-17T10:48:17.646Z,3.33
2018-12-17T10:50:45.127Z,3.70
2018-12-17T10:53:12.599Z,3.83
2018-12-17T10:55:40.232Z,3.83
2018-12-17T10:58:07.886Z,3.20
2018-12-17T11:00:40.974Z,3.47
2018-12-17T11:03:10.362Z,4.37
2018-12-17T11:05:39.141Z,3.27
2018-12-17T11:08:06.587Z,2.90
2018-12-17T11:10:34.085Z,1.93
2018-12-17T11:13:01.830Z,2.20
2018-12-17T11:15:29.489Z,1.67
2018-12-17T11:17:57.038Z,1.60
2018-12-17T11:20:24.560Z,1.70
2018-12-17T11:22:52.262Z,1.73
2018-12-17T11:25:19.927Z,1.90
2018-12-17T11:27:47.381Z,2.20
2018-12-17T11:30:14.863Z,2.23
2018-12-17T11:32:43.347Z,2.53
2018-12-17T11:35:10.970Z,2.00
2018-12-17T11:37:38.418Z,2.00
2018-12-17T11:40:06.079Z,1.87
2018-12-17T11:42:33.541Z,2.07
2018-12-17T11:45:00.983Z,3.67
2018-12-17T11:47:28.435Z,2.77
2018-12-17T11:49:56.094Z,2.23
2018-12-17T11:52:23.558Z,2.70
2018-12-17T11:54:51.034Z,2.63
2018-12-17T11:57:24.239Z,2.30
2018-12-17T11:59:51.681Z,1.80
2018-12-17T12:02:19.166Z,2.50
2018-12-17T12:04:46.746Z,2.47
2018-12-17T12:07:14.197Z,2.80
2018-12-17T12:09:41.798Z,2.97
2018-12-17T12:12:09.232Z,2.60
2018-12-17T12:14:36.788Z,2.50
2018-12-17T12:17:04.445Z,2.57
2018-12-17T12:19:31.887Z,2.10
2018-12-17T12:21:59.344Z,2.27
2018-12-17T12:24:26.794Z,2.67
2018-12-17T12:26:54.346Z,2.60
2018-12-17T12:29:21.797Z,2.27
2018-12-17T12:31:49.256Z,2.47
2018-12-17T12:34:16.929Z,2.50
2018-12-17T12:36:44.470Z,2.70
2018-12-17T12:39:11.921Z,2.83
2018-12-17T12:41:39.384Z,2.00
2018-12-17T12:44:08.939Z,2.70
2018-12-17T12:46:36.347Z,2.67
2018-12-17T12:49:03.823Z,2.70
2018-12-17T12:51:32.701Z,3.30
2018-12-17T12:54:00.653Z,3.33
2018-12-17T12:56:28.097Z,2.57
2018-12-17T12:58:55.651Z,3.07
2018-12-17T13:01:23.314Z,2.50
2018-12-17T13:03:50.880Z,3.00
2018-12-17T13:06:18.427Z,3.00
2018-12-17T13:08:46.081Z,2.87
2018-12-17T13:11:13.525Z,2.70
2018-12-17T13:13:40.977Z,2.47
2018-12-17T13:16:08.486Z,2.77
2018-12-17T13:18:36.101Z,2.30
2018-12-17T13:21:03.558Z,1.70
2018-12-17T13:23:31.027Z,2.80
2018-12-17T13:25:58.455Z,2.40
2018-12-17T13:28:25.932Z,2.47
2018-12-17T13:30:53.372Z,1.90
2018-12-17T13:33:20.849Z,2.47
2018-12-17T13:35:48.292Z,2.00
2018-12-17T13:38:15.741Z,2.27
2018-12-17T13:40:43.393Z,2.00
2018-12-17T13:43:11.092Z,2.33
2018-12-17T13:45:38.711Z,2.27
2018-12-17T13:48:06.277Z,2.13
2018-12-17T13:50:35.671Z,2.67
2018-12-17T13:53:08.874Z,4.90
2018-12-17T13:55:36.321Z,2.60
2018-12-17T13:58:04.046Z,3.37
2018-12-17T14:00:32.537Z,2.17
2018-12-17T14:03:00.103Z,2.07
2018-12-17T14:05:27.757Z,2.37
2018-12-17T14:07:55.198Z,2.40
2018-12-17T14:10:28.369Z,2.10
2018-12-17T14:12:55.969Z,2.23
2018-12-17T14:15:25.347Z,2.37
2018-12-17T14:17:54.725Z,2.00
2018-12-17T14:23:24.711Z,2.23
2018-12-17T14:25:52.357Z,2.00
2018-12-17T14:28:19.809Z,2.30
2018-12-17T14:30:47.337Z,1.77
2018-12-17T14:33:14.804Z,1.50
2018-12-17T14:35:48.117Z,1.50
2018-12-17T14:38:15.542Z,1.70
2018-12-17T14:40:42.992Z,1.70
2018-12-17T14:43:10.564Z,1.80
2018-12-17T14:45:38.017Z,2.30
2018-12-17T14:48:05.682Z,2.03
2018-12-17T14:50:33.302Z,1.20
2018-12-17T14:53:00.757Z,1.70
2018-12-17T14:55:28.508Z,1.63
2018-12-17T14:57:56.086Z,1.80
2018-12-17T15:00:23.557Z,1.80
2018-12-17T15:02:51.002Z,1.77
2018-12-17T15:05:18.465Z,1.57
2018-12-17T15:07:46.127Z,1.67
2018-12-17T15:10:13.792Z,2.07
2018-12-17T15:12:41.442Z,1.67
2018-12-17T15:15:10.165Z,1.83
2018-12-17T15:17:37.781Z,1.60
2018-12-17T15:20:08.158Z,1.77
2018-12-17T15:22:35.717Z,1.23
2018-12-17T15:25:04.173Z,1.77
2018-12-17T15:27:31.835Z,1.70
2018-12-17T15:29:59.564Z,1.90
2018-12-17T15:32:27.004Z,1.63
2018-12-17T15:34:54.670Z,1.50
2018-12-17T15:37:22.191Z,2.00
2018-12-17T15:39:49.803Z,1.80
2018-12-17T15:42:17.266Z,1.60
2018-12-17T15:44:44.805Z,2.10
2018-12-17T15:47:12.250Z,1.70
2018-12-17T15:49:39.686Z,1.80
2018-12-17T15:52:07.142Z,1.33
2018-12-17T15:54:34.569Z,1.60
2018-12-17T15:57:02.029Z,1.80
2018-12-17T15:59:29.817Z,1.53
2018-12-17T16:01:57.302Z,1.40
2018-12-17T16:04:24.777Z,1.20
2018-12-17T16:06:52.389Z,1.50
2018-12-17T16:09:19.854Z,2.53
2018-12-17T16:11:47.505Z,2.00
2018-12-17T16:14:15.163Z,3.97
2018-12-17T16:16:42.819Z,4.27
2018-12-17T16:19:10.263Z,4.07
2018-12-17T16:21:37.710Z,4.60
2018-12-17T16:24:05.182Z,3.43
2018-12-17T16:26:32.628Z,2.30
2018-12-17T16:29:00.069Z,2.40
2018-12-17T16:31:27.694Z,1.77
2018-12-17T16:33:55.205Z,2.17
2018-12-17T16:36:22.702Z,2.57
2018-12-17T16:38:50.314Z,1.97
2018-12-17T16:41:17.885Z,1.97
2018-12-17T16:43:45.431Z,2.97
2018-12-17T16:46:13.094Z,2.17
2018-12-17T16:48:40.657Z,2.20
2018-12-17T16:51:08.093Z,2.23
2018-12-17T16:53:35.650Z,1.83
2018-12-17T16:56:03.254Z,2.17
2018-12-17T16:58:30.766Z,1.80
2018-12-17T17:00:58.418Z,2.43
2018-12-17T17:03:26.086Z,2.37
2018-12-17T17:05:53.644Z,3.07
2018-12-17T17:08:21.186Z,3.30
2018-12-17T17:10:48.862Z,3.60
2018-12-17T17:13:16.515Z,4.10
2018-12-17T17:15:43.984Z,3.47
2018-12-17T17:18:11.625Z,4.07
2018-12-17T17:20:39.349Z,3.60
2018-12-17T17:23:06.965Z,3.53
2018-12-17T17:25:34.394Z,2.43
2018-12-17T17:28:02.057Z,3.47
2018-12-17T17:30:29.713Z,3.10
2018-12-17T17:32:57.156Z,2.43
2018-12-17T17:35:24.613Z,2.20
2018-12-17T17:37:52.085Z,2.33
2018-12-17T17:40:19.727Z,3.77
2018-12-17T17:42:47.297Z,3.90
2018-12-17T17:45:14.841Z,3.10
2018-12-17T17:47:42.306Z,4.57
2018-12-17T17:50:09.961Z,3.73
2018-12-17T17:52:37.568Z,2.60
2018-12-17T17:55:05.482Z,2.33
2018-12-17T17:57:32.943Z,1.83
2018-12-17T18:00:00.402Z,1.67
2018-12-17T18:02:28.000Z,1.80
2018-12-17T18:04:55.486Z,1.60
2018-12-17T18:07:22.935Z,2.07
2018-12-17T18:09:50.626Z,2.23
2018-12-17T18:12:18.135Z,2.50
2018-12-17T18:14:45.847Z,1.60
2018-12-17T18:17:13.386Z,2.03
2018-12-17T18:19:41.042Z,1.60
2018-12-17T18:22:08.697Z,1.53
2018-12-17T18:24:36.353Z,1.27
2018-12-17T18:27:03.794Z,1.83
2018-12-17T18:29:31.466Z,1.30
2018-12-17T18:31:59.037Z,1.33
2018-12-17T18:34:26.583Z,1.73
2018-12-17T18:36:54.247Z,1.47
2018-12-17T18:39:22.234Z,1.83
2018-12-17T18:41:49.665Z,1.70
2018-12-17T18:44:17.214Z,2.10
2018-12-17T18:46:44.877Z,1.93
2018-12-17T18:49:12.534Z,2.07
2018-12-17T18:51:40.193Z,2.70
2018-12-17T18:54:07.650Z,2.47
2018-12-17T18:56:35.115Z,2.33
2018-12-17T18:59:02.645Z,2.30
2018-12-17T19:01:30.090Z,2.43
2018-12-17T19:03:57.544Z,2.07
2018-12-17T19:06:25.008Z,1.47
2018-12-17T19:08:52.465Z,1.83
2018-12-17T19:11:19.948Z,2.63
2018-12-17T19:13:47.402Z,2.27
2018-12-17T19:16:14.941Z,3.27
2018-12-17T19:18:42.458Z,3.23
2018-12-17T19:21:10.046Z,2.87
2018-12-17T19:23:37.520Z,3.93
2018-12-17T19:26:05.164Z,3.23
2018-12-17T19:28:32.619Z,3.83
2018-12-17T19:31:00.083Z,4.87
2018-12-17T19:33:27.541Z,4.03
2018-12-17T19:35:55.115Z,3.70
2018-12-17T19:38:22.657Z,3.27
2018-12-17T19:40:50.291Z,2.77
2018-12-17T19:43:17.750Z,2.40
2018-12-17T19:45:45.316Z,3.67
2018-12-17T19:48:12.811Z,4.00
2018-12-17T19:50:40.314Z,4.67
2018-12-17T19:53:07.973Z,4.30
2018-12-17T19:55:35.438Z,4.97
2018-12-17T19:58:03.098Z,3.90
2018-12-17T20:00:30.542Z,4.20
2018-12-17T20:02:57.998Z,3.90
2018-12-17T20:05:25.445Z,4.20
2018-12-17T20:07:53.110Z,4.00
2018-12-17T20:10:20.934Z,5.57
2018-12-17T20:12:48.433Z,5.53
2018-12-17T20:15:15.894Z,4.17
2018-12-17T20:17:43.341Z,4.03
2018-12-17T20:20:10.997Z,5.07
2018-12-17T20:22:38.434Z,5.20
2018-12-17T20:25:06.096Z,4.83
2018-12-17T20:27:33.662Z,4.10
2018-12-17T20:30:01.201Z,3.70
2018-12-17T20:32:28.674Z,3.60
2018-12-17T20:34:56.331Z,4.40
2018-12-17T20:37:23.982Z,4.70
2018-12-17T20:39:51.436Z,4.10
2018-12-17T20:42:18.902Z,3.30
2018-12-17T20:44:46.663Z,4.57
2018-12-17T20:47:14.109Z,3.80
2018-12-17T20:49:41.682Z,3.93
2018-12-17T20:52:09.134Z,3.73
2018-12-17T20:54:36.593Z,4.37
2018-12-17T20:57:04.089Z,3.73
2018-12-17T20:59:31.689Z,4.30
2018-12-17T21:01:59.346Z,4.60
2018-12-17T21:04:26.808Z,4.10
2018-12-17T21:06:54.263Z,3.80
2018-12-17T21:09:21.909Z,4.10
2018-12-17T21:11:49.365Z,3.83
2018-12-17T21:14:23.437Z,3.73
2018-12-17T21:16:46.533Z,3.23
2018-12-17T21:19:14.176Z,4.13
2018-12-17T21:21:41.836Z,4.13
2018-12-17T21:24:09.398Z,4.40
2018-12-17T21:26:36.981Z,3.87
2018-12-17T21:29:04.511Z,4.43
2018-12-17T21:31:32.285Z,4.43
2018-12-17T21:33:59.738Z,4.07
2018-12-17T21:36:27.386Z,3.47
2018-12-17T21:38:54.865Z,3.80
2018-12-17T21:41:22.499Z,3.90
2018-12-17T21:43:49.956Z,4.77
2018-12-17T21:46:17.606Z,4.17
2018-12-17T21:48:45.285Z,4.07
2018-12-17T21:51:12.739Z,4.30
2018-12-17T21:53:40.378Z,4.20
2018-12-17T21:56:07.833Z,3.63
2018-12-17T21:58:35.494Z,4.40
2018-12-17T22:01:03.025Z,3.43
2018-12-17T22:03:30.457Z,3.90
2018-12-17T22:05:58.061Z,3.80
2018-12-17T22:08:25.727Z,4.10
2018-12-17T22:10:53.393Z,3.67
2018-12-17T22:13:20.839Z,4.27
2018-12-17T22:15:48.491Z,3.70
2018-12-17T22:18:16.150Z,3.90
2018-12-17T22:20:43.602Z,3.60
2018-12-17T22:23:11.267Z,4.23
2018-12-17T22:25:38.729Z,3.40
2018-12-17T22:28:06.173Z,3.70
2018-12-17T22:30:33.944Z,3.80
2018-12-17T22:33:01.481Z,3.17
2018-12-17T22:35:29.142Z,3.23
2018-12-17T22:37:56.619Z,3.47
2018-12-17T22:40:24.254Z,3.20
2018-12-17T22:42:51.751Z,3.20
2018-12-17T22:45:19.367Z,3.60
2018-12-17T22:47:46.831Z,4.07
2018-12-17T22:50:14.273Z,4.03
2018-12-17T22:52:41.829Z,3.60
2018-12-17T22:55:09.409Z,3.43
2018-12-17T22:57:36.844Z,3.63
2018-12-17T23:00:05.505Z,3.43
2018-12-17T23:02:32.977Z,3.53
2018-12-17T23:05:00.637Z,3.97
2018-12-17T23:07:28.101Z,3.23
2018-12-17T23:10:07.685Z,4.20
2018-12-17T23:12:47.162Z,3.77
2018-12-17T23:15:26.461Z,4.60
2018-12-17T23:17:53.781Z,3.97
2018-12-17T23:20:21.241Z,3.93
2018-12-17T23:22:48.722Z,3.47
2018-12-17T23:25:16.518Z,3.67
2018-12-17T23:27:47.367Z,3.60
2018-12-17T23:30:15.691Z,3.30
2018-12-17T23:32:43.241Z,3.60
2018-12-17T23:35:10.722Z,3.30
2018-12-17T23:37:38.297Z,3.13
2018-12-17T23:40:06.130Z,3.83
2018-12-17T23:42:33.622Z,3.60
2018-12-17T23:45:01.090Z,3.30
2018-12-17T23:47:28.727Z,3.43
2018-12-17T23:49:56.204Z,2.93
2018-12-17T23:52:23.654Z,3.20
2018-12-17T23:54:51.286Z,3.10
2018-12-17T23:57:19.002Z,3.77
2018-12-17T23:59:46.606Z,3.67
